Airfield :
LOGIN :

Register | Disclaimer

   EN    FR    IT 

 










Legend :    VFR   Marginal VFR   IFR   Intensive IFR   Very Intensive IFR
Visi :
Ceiling :
>= 8 km
>= 3000ft
5 to 8 km
1000 to 3000 ft
1500m to 5 km
500 to 1000 ft
800 to 1500m
200 to 500 ft
< 800m
< 200 ft
Symbols :   Thunderstorms  Fog  Heavy snow  Heavy precipitations  Wind > 20 kt
SIGMETs :     Misc.  Thunderstorms  Icing  Turbulence  Mountain Waves  Volcanic Ashes







- Airport Elevation : 74 ft
- IATA code : LRH
- Download approach charts


LFBH - La Rochelle Ile de Ré

CURRENT METAR :
  • 221330Z AUTO 09006KT CAVOK 20/10 Q1001 TEMPO 13015G25KT

EXPIRED METARs :
  • 221300Z AUTO 10007KT CAVOK 20/11 Q1001 TEMPO 13015G25KT
  • 221230Z AUTO 10006KT CAVOK 20/10 Q1001 TEMPO 13015G25KT
  • 221200Z AUTO 12010KT CAVOK 19/09 Q1002 TEMPO 13015G25KT
  • 221130Z AUTO 12012KT CAVOK 19/10 Q1002 TEMPO 13015G25KT
  • 221100Z AUTO 12017KT 090V150 CAVOK 20/10 Q1003 TEMPO 13015G25KT

TAF TAF LFBH
Valid from the 22 at 12:00 until the 23 at 12:00 UTC


221100Z 2212/2312 13012KT CAVOK
TEMPO 2212/2216 13015G25KT
TEMPO 2216/2221 SCT080TCU
PROB30
TEMPO 2310/2312 18010G20KT -SHRA BKN040TCU
ATIS : +33 5 46 00 13 92
No reported NOTAMs for that airfield.



MET'MAP, your aeronautical weather chart ! - Copyright ORBIFLY December 2007 - Disclaimer

ORBIFLY MET'MAP TEAM :

Programming & Development : Alexandra Zaïnal
Concept & Development : Baudouin d'Aumeries
Co-Development & Prog : Marc-Olivier Méhu
Technical & hardware support : Manuel Goepfert

Contact : metmap@orbifly.com




SOURCES & CREDITS :

   NOAA